This is the latest recevied weather packets stored in our database for station/object 9M2ABD-1. If no packets are shown the sender has not sent any weather packets the latest 10 day(s).
| Time | Temp. | Humidity | Pressure | Rain* | Wind** | Luminosity | Snow |
|---|---|---|---|---|---|---|---|
| 1777267166 | 32.78° C | 62% | 1008.4 hPa | - | - | - | - |
| 1777265966 | 32.78° C | 61% | 1008.4 hPa | - | - | - | - |
| 1777263612 | 32.22° C | 66% | 1009 hPa | - | - | - | - |
| 1777263566 | 32.22° C | 66% | 1009 hPa | - | - | - | - |
| 1777261165 | 31.67° C | 70% | 1009.8 hPa | - | - | - | - |
| 1777260093 | 31.11° C | 73% | 1009.9 hPa | - | - | - | - |
| 1777259965 | 31.11° C | 73% | 1009.9 hPa | - | - | - | - |
| 1777258760 | 30.56° C | 72% | 1010.2 hPa | - | - | - | - |
| 1777257560 | 30.56° C | 73% | 1010.4 hPa | - | - | - | - |
| 1777256360 | 30.56° C | 74% | 1010.5 hPa | - | - | - | - |
| 1777255160 | 30.56° C | 73% | 1010.2 hPa | - | - | - | - |
| 1777253960 | 30° C | 74% | 1010.3 hPa | - | - | - | - |
| 1777252760 | 30° C | 74% | 1010 hPa | - | - | - | - |
| 1777250362 | 29.44° C | 75% | 1009.8 hPa | - | - | - | - |
| 1777249160 | 29.44° C | 75% | 1009.5 hPa | - | - | - | - |
| 1777247960 | 29.44° C | 75% | 1009.1 hPa | - | - | - | - |
| 1777246760 | 29.44° C | 74% | 1008.8 hPa | - | - | - | - |
| 1777245560 | 29.44° C | 75% | 1008.7 hPa | - | - | - | - |
| 1777244360 | 29.44° C | 74% | 1008.7 hPa | - | - | - | - |
| 1777243160 | 29.44° C | 74% | 1008.5 hPa | - | - | - | - |
| 1777241960 | 29.44° C | 74% | 1008.2 hPa | - | - | - | - |
| 1777240760 | 29.44° C | 74% | 1007.9 hPa | - | - | - | - |
| 1777239560 | 29.44° C | 73% | 1007.7 hPa | - | - | - | - |
| 1777238360 | 29.44° C | 73% | 1007.6 hPa | - | - | - | - |
| 1777237160 | 29.44° C | 73% | 1007.5 hPa | - | - | - | - |
* Rain since midnight (hover to see other rain measurements)
** Current wind speed in m/s (hover to see current wind gust speed)